Lynchburg, South Carolina
Current Conditions -  °F | °C
As of 11:55 AM on Thursday 30 Oct 2014 (Local Time) from KSMS Reporting Station
Clear Clear  
Wind Chill: 68°   Ceiling: Unl
Heat Index: 68°   Visibility: 10mi
Dew Point: 48°   Wind: 10mph
Humidity: 49%   Direction: 50°NE
Pressure: 30.04"   Gusts: 18mph
Location:  34.06°N, 80.07°W
Report Text: KSMS 301555Z AUTO 05009G16KT 10SM CLR 20/09 A3004 RMK AO2
Loading
Personal Weather Stations






























Interactive Weather Map
Tropical Storm Tracking
New forecast layout! Learn more

10-Day Weather Forecast

Advertisements
Track Severe Weather on mobile